createdAt,value
2022-12-29T00:05:44.143Z,22.60
2022-12-29T00:14:26.292Z,22.30
2022-12-29T00:23:08.132Z,19.10
2022-12-29T00:31:48.536Z,15.40
2022-12-29T00:40:37.056Z,22.90
2022-12-29T00:49:17.047Z,22.10
2022-12-29T00:57:39.758Z,23.10
2022-12-29T01:06:02.592Z,15.00
2022-12-29T01:14:24.798Z,16.40
2022-12-29T01:22:46.382Z,24.30
2022-12-29T01:31:08.931Z,18.10
2022-12-29T01:39:31.854Z,13.70
2022-12-29T01:48:00.993Z,15.00
2022-12-29T01:56:23.551Z,15.50
2022-12-29T02:04:45.218Z,18.90
2022-12-29T02:13:07.174Z,15.90
2022-12-29T02:21:50.484Z,15.50
2022-12-29T02:30:18.553Z,12.60
2022-12-29T02:39:00.839Z,14.60
2022-12-29T02:47:28.478Z,14.90
2022-12-29T02:55:52.022Z,16.10
2022-12-29T03:04:48.788Z,16.30
2022-12-29T03:13:46.998Z,15.30
2022-12-29T03:22:31.113Z,16.20
2022-12-29T03:31:07.127Z,16.80
2022-12-29T03:39:29.411Z,16.60
2022-12-29T03:47:53.781Z,13.20
2022-12-29T03:56:15.686Z,15.10
2022-12-29T04:04:38.600Z,15.30
2022-12-29T04:13:00.553Z,15.60
2022-12-29T04:21:22.310Z,19.30
2022-12-29T04:29:44.188Z,17.10
2022-12-29T04:38:21.769Z,16.40
2022-12-29T04:46:43.747Z,16.60
2022-12-29T04:55:14.821Z,18.90
2022-12-29T05:03:36.766Z,15.70
2022-12-29T05:11:59.435Z,13.90
2022-12-29T05:20:21.581Z,11.90
2022-12-29T05:28:43.213Z,11.80
2022-12-29T05:37:08.537Z,12.00
2022-12-29T05:45:30.283Z,12.60
2022-12-29T06:02:46.152Z,11.60
2022-12-29T06:11:09.027Z,11.80
